sensor_id;sensor_type;location;lat;lon;timestamp;temperature;humidity
33105;DHT22;19476;51.448;6.674;2024-01-30T00:00:04;15.10;50.70
33105;DHT22;19476;51.448;6.674;2024-01-30T00:02:30;15.10;50.40
33105;DHT22;19476;51.448;6.674;2024-01-30T00:04:56;15.00;50.30
33105;DHT22;19476;51.448;6.674;2024-01-30T00:07:21;15.00;50.40
33105;DHT22;19476;51.448;6.674;2024-01-30T00:09:47;15.00;50.30
33105;DHT22;19476;51.448;6.674;2024-01-30T00:12:16;15.00;50.50
33105;DHT22;19476;51.448;6.674;2024-01-30T00:14:42;15.00;50.40
33105;DHT22;19476;51.448;6.674;2024-01-30T00:17:08;15.00;50.40
33105;DHT22;19476;51.448;6.674;2024-01-30T00:19:34;15.00;50.40
33105;DHT22;19476;51.448;6.674;2024-01-30T00:21:59;15.00;50.20
33105;DHT22;19476;51.448;6.674;2024-01-30T00:24:25;15.00;50.40
33105;DHT22;19476;51.448;6.674;2024-01-30T00:26:50;14.90;50.30
33105;DHT22;19476;51.448;6.674;2024-01-30T00:29:16;14.90;50.20
33105;DHT22;19476;51.448;6.674;2024-01-30T00:31:45;14.90;50.20
33105;DHT22;19476;51.448;6.674;2024-01-30T00:34:11;14.90;50.20
33105;DHT22;19476;51.448;6.674;2024-01-30T00:36:36;15.00;50.20
33105;DHT22;19476;51.448;6.674;2024-01-30T00:39:02;14.90;50.20
33105;DHT22;19476;51.448;6.674;2024-01-30T00:41:31;14.90;50.20
33105;DHT22;19476;51.448;6.674;2024-01-30T00:43:57;14.90;50.20
33105;DHT22;19476;51.448;6.674;2024-01-30T00:46:23;14.90;50.20
33105;DHT22;19476;51.448;6.674;2024-01-30T00:48:48;14.90;50.30
33105;DHT22;19476;51.448;6.674;2024-01-30T00:51:14;14.90;50.20
33105;DHT22;19476;51.448;6.674;2024-01-30T00:53:40;14.90;50.10
33105;DHT22;19476;51.448;6.674;2024-01-30T00:56:07;14.90;50.10
33105;DHT22;19476;51.448;6.674;2024-01-30T00:58:33;14.90;50.30
33105;DHT22;19476;51.448;6.674;2024-01-30T01:00:58;14.90;50.20
33105;DHT22;19476;51.448;6.674;2024-01-30T01:03:24;14.90;50.30
33105;DHT22;19476;51.448;6.674;2024-01-30T01:05:49;14.90;50.20
33105;DHT22;19476;51.448;6.674;2024-01-30T01:08:17;14.90;50.20
33105;DHT22;19476;51.448;6.674;2024-01-30T01:10:43;14.90;50.20
33105;DHT22;19476;51.448;6.674;2024-01-30T01:13:09;14.90;50.30
33105;DHT22;19476;51.448;6.674;2024-01-30T01:15:34;14.90;50.20
33105;DHT22;19476;51.448;6.674;2024-01-30T01:18:00;14.90;50.90
33105;DHT22;19476;51.448;6.674;2024-01-30T01:20:26;14.90;50.40
33105;DHT22;19476;51.448;6.674;2024-01-30T01:22:51;14.90;50.50
33105;DHT22;19476;51.448;6.674;2024-01-30T01:25:17;14.30;50.00
33105;DHT22;19476;51.448;6.674;2024-01-30T01:27:43;14.90;50.40
33105;DHT22;19476;51.448;6.674;2024-01-30T01:30:16;14.80;50.30
33105;DHT22;19476;51.448;6.674;2024-01-30T01:32:47;14.80;50.40
33105;DHT22;19476;51.448;6.674;2024-01-30T01:35:23;14.80;50.40
33105;DHT22;19476;51.448;6.674;2024-01-30T01:37:50;14.80;50.40
33105;DHT22;19476;51.448;6.674;2024-01-30T01:40:23;14.80;50.50
33105;DHT22;19476;51.448;6.674;2024-01-30T01:42:52;14.80;50.50
33105;DHT22;19476;51.448;6.674;2024-01-30T01:45:18;14.80;50.50
33105;DHT22;19476;51.448;6.674;2024-01-30T01:47:45;14.70;50.30
33105;DHT22;19476;51.448;6.674;2024-01-30T01:50:15;14.70;50.40
33105;DHT22;19476;51.448;6.674;2024-01-30T01:52:43;14.70;50.80
33105;DHT22;19476;51.448;6.674;2024-01-30T01:55:10;14.70;50.50
33105;DHT22;19476;51.448;6.674;2024-01-30T01:57:36;14.70;50.50
33105;DHT22;19476;51.448;6.674;2024-01-30T02:00:02;14.70;50.60
33105;DHT22;19476;51.448;6.674;2024-01-30T02:02:32;14.70;50.60
33105;DHT22;19476;51.448;6.674;2024-01-30T02:05:00;14.70;50.60
33105;DHT22;19476;51.448;6.674;2024-01-30T02:07:25;14.70;50.50
33105;DHT22;19476;51.448;6.674;2024-01-30T02:09:52;14.70;50.50
33105;DHT22;19476;51.448;6.674;2024-01-30T02:12:18;14.70;50.60
33105;DHT22;19476;51.448;6.674;2024-01-30T02:14:47;14.70;51.10
33105;DHT22;19476;51.448;6.674;2024-01-30T02:17:12;14.70;50.50
33105;DHT22;19476;51.448;6.674;2024-01-30T02:19:38;14.70;50.60
33105;DHT22;19476;51.448;6.674;2024-01-30T02:22:04;14.70;50.60
33105;DHT22;19476;51.448;6.674;2024-01-30T02:24:30;14.70;50.60
33105;DHT22;19476;51.448;6.674;2024-01-30T02:26:56;14.70;51.20
33105;DHT22;19476;51.448;6.674;2024-01-30T02:29:21;14.70;50.60
33105;DHT22;19476;51.448;6.674;2024-01-30T02:31:47;14.70;50.60
33105;DHT22;19476;51.448;6.674;2024-01-30T02:34:13;14.60;50.60
33105;DHT22;19476;51.448;6.674;2024-01-30T02:36:41;14.60;50.70
33105;DHT22;19476;51.448;6.674;2024-01-30T02:39:07;14.60;50.70
33105;DHT22;19476;51.448;6.674;2024-01-30T02:41:33;14.60;50.50
33105;DHT22;19476;51.448;6.674;2024-01-30T02:43:59;14.60;50.60
33105;DHT22;19476;51.448;6.674;2024-01-30T02:46:24;14.50;50.50
33105;DHT22;19476;51.448;6.674;2024-01-30T02:48:50;14.60;51.20
33105;DHT22;19476;51.448;6.674;2024-01-30T02:51:16;14.50;50.70
33105;DHT22;19476;51.448;6.674;2024-01-30T02:53:42;14.60;50.80
33105;DHT22;19476;51.448;6.674;2024-01-30T02:56:07;14.50;50.90
33105;DHT22;19476;51.448;6.674;2024-01-30T02:58:35;14.50;50.70
33105;DHT22;19476;51.448;6.674;2024-01-30T03:01:02;14.50;51.00
33105;DHT22;19476;51.448;6.674;2024-01-30T03:03:27;14.60;51.00
33105;DHT22;19476;51.448;6.674;2024-01-30T03:05:53;14.50;51.20
33105;DHT22;19476;51.448;6.674;2024-01-30T03:08:18;14.60;51.00
33105;DHT22;19476;51.448;6.674;2024-01-30T03:10:44;14.50;50.90
33105;DHT22;19476;51.448;6.674;2024-01-30T03:13:09;14.50;51.00
33105;DHT22;19476;51.448;6.674;2024-01-30T03:15:35;14.50;50.90
33105;DHT22;19476;51.448;6.674;2024-01-30T03:18:01;14.20;51.00
33105;DHT22;19476;51.448;6.674;2024-01-30T03:20:27;14.50;51.10
33105;DHT22;19476;51.448;6.674;2024-01-30T03:22:53;14.50;51.10
33105;DHT22;19476;51.448;6.674;2024-01-30T03:25:19;14.50;51.10
33105;DHT22;19476;51.448;6.674;2024-01-30T03:27:45;14.50;51.00
33105;DHT22;19476;51.448;6.674;2024-01-30T03:30:10;14.50;51.10
33105;DHT22;19476;51.448;6.674;2024-01-30T03:32:36;14.50;51.20
33105;DHT22;19476;51.448;6.674;2024-01-30T03:35:01;14.40;51.00
33105;DHT22;19476;51.448;6.674;2024-01-30T03:37:27;14.40;51.30
33105;DHT22;19476;51.448;6.674;2024-01-30T03:39:53;14.50;51.50
33105;DHT22;19476;51.448;6.674;2024-01-30T03:42:18;14.40;51.40
33105;DHT22;19476;51.448;6.674;2024-01-30T03:44:44;14.40;51.50
33105;DHT22;19476;51.448;6.674;2024-01-30T03:47:09;14.40;51.40
33105;DHT22;19476;51.448;6.674;2024-01-30T03:49:35;14.30;51.40
33105;DHT22;19476;51.448;6.674;2024-01-30T03:52:00;14.30;51.60
33105;DHT22;19476;51.448;6.674;2024-01-30T03:54:26;14.30;51.30
33105;DHT22;19476;51.448;6.674;2024-01-30T03:56:52;14.30;51.50
33105;DHT22;19476;51.448;6.674;2024-01-30T03:59:17;14.30;51.60
33105;DHT22;19476;51.448;6.674;2024-01-30T04:01:47;14.30;51.40
33105;DHT22;19476;51.448;6.674;2024-01-30T04:04:13;14.30;51.20
33105;DHT22;19476;51.448;6.674;2024-01-30T04:06:38;14.20;51.70
33105;DHT22;19476;51.448;6.674;2024-01-30T04:09:04;14.30;51.60
33105;DHT22;19476;51.448;6.674;2024-01-30T04:11:29;14.20;51.60
33105;DHT22;19476;51.448;6.674;2024-01-30T04:13:55;14.20;51.80
33105;DHT22;19476;51.448;6.674;2024-01-30T04:16:21;14.20;51.60
33105;DHT22;19476;51.448;6.674;2024-01-30T04:18:51;14.20;51.60
33105;DHT22;19476;51.448;6.674;2024-01-30T04:21:16;14.20;51.60
33105;DHT22;19476;51.448;6.674;2024-01-30T04:23:42;14.10;51.60
33105;DHT22;19476;51.448;6.674;2024-01-30T04:26:08;14.20;51.60
33105;DHT22;19476;51.448;6.674;2024-01-30T04:28:33;14.20;52.00
33105;DHT22;19476;51.448;6.674;2024-01-30T04:30:59;14.20;51.70
33105;DHT22;19476;51.448;6.674;2024-01-30T04:33:24;14.10;51.90
33105;DHT22;19476;51.448;6.674;2024-01-30T04:35:50;14.10;51.90
33105;DHT22;19476;51.448;6.674;2024-01-30T04:38:17;14.20;51.80
33105;DHT22;19476;51.448;6.674;2024-01-30T04:40:42;14.10;51.80
33105;DHT22;19476;51.448;6.674;2024-01-30T04:43:08;14.10;51.90
33105;DHT22;19476;51.448;6.674;2024-01-30T04:45:34;14.10;52.50
33105;DHT22;19476;51.448;6.674;2024-01-30T04:48:00;14.10;52.20
33105;DHT22;19476;51.448;6.674;2024-01-30T04:50:25;13.90;52.10
33105;DHT22;19476;51.448;6.674;2024-01-30T04:52:52;14.00;52.10
33105;DHT22;19476;51.448;6.674;2024-01-30T04:55:18;14.00;52.40
33105;DHT22;19476;51.448;6.674;2024-01-30T04:57:43;14.00;52.60
33105;DHT22;19476;51.448;6.674;2024-01-30T05:00:09;14.00;52.30
33105;DHT22;19476;51.448;6.674;2024-01-30T05:02:35;14.00;53.20
33105;DHT22;19476;51.448;6.674;2024-01-30T05:05:01;13.80;53.00
33105;DHT22;19476;51.448;6.674;2024-01-30T05:07:26;13.90;53.10
33105;DHT22;19476;51.448;6.674;2024-01-30T05:09:52;13.90;52.80
33105;DHT22;19476;51.448;6.674;2024-01-30T05:12:17;13.90;52.70
33105;DHT22;19476;51.448;6.674;2024-01-30T05:14:43;13.90;53.20
33105;DHT22;19476;51.448;6.674;2024-01-30T05:17:08;13.90;53.00
33105;DHT22;19476;51.448;6.674;2024-01-30T05:19:35;13.80;53.30
33105;DHT22;19476;51.448;6.674;2024-01-30T05:22:01;13.80;53.40
33105;DHT22;19476;51.448;6.674;2024-01-30T05:24:26;13.80;53.30
33105;DHT22;19476;51.448;6.674;2024-01-30T05:26:52;13.80;53.10
33105;DHT22;19476;51.448;6.674;2024-01-30T05:29:18;13.80;53.70
33105;DHT22;19476;51.448;6.674;2024-01-30T05:31:43;13.80;53.70
33105;DHT22;19476;51.448;6.674;2024-01-30T05:34:09;13.70;53.50
33105;DHT22;19476;51.448;6.674;2024-01-30T05:36:35;13.80;54.20
33105;DHT22;19476;51.448;6.674;2024-01-30T05:39:00;13.70;53.50
33105;DHT22;19476;51.448;6.674;2024-01-30T05:41:26;13.80;53.70
33105;DHT22;19476;51.448;6.674;2024-01-30T05:43:54;13.80;53.70
33105;DHT22;19476;51.448;6.674;2024-01-30T05:46:20;13.70;53.70
33105;DHT22;19476;51.448;6.674;2024-01-30T05:48:46;13.70;53.50
33105;DHT22;19476;51.448;6.674;2024-01-30T05:51:11;13.70;53.70
33105;DHT22;19476;51.448;6.674;2024-01-30T05:53:37;13.70;53.50
33105;DHT22;19476;51.448;6.674;2024-01-30T05:56:03;13.80;53.50
33105;DHT22;19476;51.448;6.674;2024-01-30T05:58:29;13.80;53.50
33105;DHT22;19476;51.448;6.674;2024-01-30T06:00:56;13.80;53.40
33105;DHT22;19476;51.448;6.674;2024-01-30T06:03:22;13.80;53.20
33105;DHT22;19476;51.448;6.674;2024-01-30T06:05:47;13.80;53.10
33105;DHT22;19476;51.448;6.674;2024-01-30T06:08:13;13.80;53.20
33105;DHT22;19476;51.448;6.674;2024-01-30T06:10:38;13.90;53.30
33105;DHT22;19476;51.448;6.674;2024-01-30T06:13:04;13.90;53.10
33105;DHT22;19476;51.448;6.674;2024-01-30T06:15:30;13.90;53.30
33105;DHT22;19476;51.448;6.674;2024-01-30T06:17:56;13.90;53.10
33105;DHT22;19476;51.448;6.674;2024-01-30T06:20:21;13.90;53.20
33105;DHT22;19476;51.448;6.674;2024-01-30T06:22:47;13.90;53.60
33105;DHT22;19476;51.448;6.674;2024-01-30T06:25:12;13.90;53.40
33105;DHT22;19476;51.448;6.674;2024-01-30T06:27:38;14.00;53.60
33105;DHT22;19476;51.448;6.674;2024-01-30T06:30:04;14.00;53.50
33105;DHT22;19476;51.448;6.674;2024-01-30T06:32:29;14.00;53.50
33105;DHT22;19476;51.448;6.674;2024-01-30T06:35:00;14.10;53.40
33105;DHT22;19476;51.448;6.674;2024-01-30T06:37:25;14.10;53.40
33105;DHT22;19476;51.448;6.674;2024-01-30T06:39:51;14.10;53.20
33105;DHT22;19476;51.448;6.674;2024-01-30T06:42:17;14.10;53.10
33105;DHT22;19476;51.448;6.674;2024-01-30T06:44:43;14.10;53.10
33105;DHT22;19476;51.448;6.674;2024-01-30T06:47:09;14.20;53.10
33105;DHT22;19476;51.448;6.674;2024-01-30T06:49:35;14.20;53.10
33105;DHT22;19476;51.448;6.674;2024-01-30T06:52:06;14.10;52.90
33105;DHT22;19476;51.448;6.674;2024-01-30T06:54:31;14.10;53.10
33105;DHT22;19476;51.448;6.674;2024-01-30T06:56:58;14.20;53.10
33105;DHT22;19476;51.448;6.674;2024-01-30T06:59:24;14.20;53.20
33105;DHT22;19476;51.448;6.674;2024-01-30T07:01:49;14.20;53.30
33105;DHT22;19476;51.448;6.674;2024-01-30T07:04:15;14.10;53.10
33105;DHT22;19476;51.448;6.674;2024-01-30T07:06:41;14.20;53.40
33105;DHT22;19476;51.448;6.674;2024-01-30T07:09:07;14.20;53.20
33105;DHT22;19476;51.448;6.674;2024-01-30T07:11:33;14.10;53.20
33105;DHT22;19476;51.448;6.674;2024-01-30T07:13:59;14.10;53.20
33105;DHT22;19476;51.448;6.674;2024-01-30T07:16:25;14.10;53.30
33105;DHT22;19476;51.448;6.674;2024-01-30T07:18:50;14.10;53.60
33105;DHT22;19476;51.448;6.674;2024-01-30T07:21:16;14.10;53.30
33105;DHT22;19476;51.448;6.674;2024-01-30T07:23:42;14.10;53.30
33105;DHT22;19476;51.448;6.674;2024-01-30T07:26:08;14.10;53.20
33105;DHT22;19476;51.448;6.674;2024-01-30T07:28:34;14.00;53.10
33105;DHT22;19476;51.448;6.674;2024-01-30T07:31:00;14.00;53.10
33105;DHT22;19476;51.448;6.674;2024-01-30T07:33:25;14.10;53.50
33105;DHT22;19476;51.448;6.674;2024-01-30T07:35:54;14.10;53.30
33105;DHT22;19476;51.448;6.674;2024-01-30T07:38:19;14.10;53.40
33105;DHT22;19476;51.448;6.674;2024-01-30T07:40:45;14.10;53.10
33105;DHT22;19476;51.448;6.674;2024-01-30T07:43:11;14.10;53.40
33105;DHT22;19476;51.448;6.674;2024-01-30T07:45:36;13.90;53.20
33105;DHT22;19476;51.448;6.674;2024-01-30T07:48:05;14.10;53.30
33105;DHT22;19476;51.448;6.674;2024-01-30T07:50:31;14.10;53.60
33105;DHT22;19476;51.448;6.674;2024-01-30T07:52:58;14.10;53.30
33105;DHT22;19476;51.448;6.674;2024-01-30T07:55:24;14.10;53.40
33105;DHT22;19476;51.448;6.674;2024-01-30T07:57:52;14.10;53.50
33105;DHT22;19476;51.448;6.674;2024-01-30T08:00:18;14.10;53.40
33105;DHT22;19476;51.448;6.674;2024-01-30T08:02:45;14.10;53.60
33105;DHT22;19476;51.448;6.674;2024-01-30T08:05:10;14.10;53.60
33105;DHT22;19476;51.448;6.674;2024-01-30T08:07:36;14.10;53.70
33105;DHT22;19476;51.448;6.674;2024-01-30T08:10:03;14.10;53.60
33105;DHT22;19476;51.448;6.674;2024-01-30T08:12:29;14.10;53.60
33105;DHT22;19476;51.448;6.674;2024-01-30T08:14:54;14.10;53.70
33105;DHT22;19476;51.448;6.674;2024-01-30T08:17:20;14.10;53.60
33105;DHT22;19476;51.448;6.674;2024-01-30T08:19:45;14.10;53.80
33105;DHT22;19476;51.448;6.674;2024-01-30T08:22:11;14.10;53.80
33105;DHT22;19476;51.448;6.674;2024-01-30T08:24:37;14.20;53.90
33105;DHT22;19476;51.448;6.674;2024-01-30T08:27:03;14.10;53.80
33105;DHT22;19476;51.448;6.674;2024-01-30T08:29:32;14.10;53.80
33105;DHT22;19476;51.448;6.674;2024-01-30T08:31:58;14.10;54.00
33105;DHT22;19476;51.448;6.674;2024-01-30T08:34:24;14.20;53.80
33105;DHT22;19476;51.448;6.674;2024-01-30T08:36:50;14.20;54.00
33105;DHT22;19476;51.448;6.674;2024-01-30T08:39:16;14.20;53.90
33105;DHT22;19476;51.448;6.674;2024-01-30T08:41:41;14.20;54.00
33105;DHT22;19476;51.448;6.674;2024-01-30T08:44:07;14.20;53.90
33105;DHT22;19476;51.448;6.674;2024-01-30T08:46:32;14.30;53.90
33105;DHT22;19476;51.448;6.674;2024-01-30T08:48:59;14.30;54.00
33105;DHT22;19476;51.448;6.674;2024-01-30T08:51:24;14.30;53.90
33105;DHT22;19476;51.448;6.674;2024-01-30T08:53:50;14.30;53.90
33105;DHT22;19476;51.448;6.674;2024-01-30T08:56:17;14.30;53.80
33105;DHT22;19476;51.448;6.674;2024-01-30T08:58:42;14.30;53.90
33105;DHT22;19476;51.448;6.674;2024-01-30T09:01:08;14.40;54.00
33105;DHT22;19476;51.448;6.674;2024-01-30T09:03:34;14.40;53.80
33105;DHT22;19476;51.448;6.674;2024-01-30T09:05:59;14.40;54.00
33105;DHT22;19476;51.448;6.674;2024-01-30T09:08:25;14.40;53.90
33105;DHT22;19476;51.448;6.674;2024-01-30T09:10:50;14.40;53.90
33105;DHT22;19476;51.448;6.674;2024-01-30T09:13:16;14.40;53.80
33105;DHT22;19476;51.448;6.674;2024-01-30T09:15:41;14.40;54.00
33105;DHT22;19476;51.448;6.674;2024-01-30T09:18:07;14.40;54.00
33105;DHT22;19476;51.448;6.674;2024-01-30T09:20:33;14.40;53.90
33105;DHT22;19476;51.448;6.674;2024-01-30T09:22:58;14.40;53.80
33105;DHT22;19476;51.448;6.674;2024-01-30T09:25:24;14.50;54.00
33105;DHT22;19476;51.448;6.674;2024-01-30T09:27:49;14.50;54.00
33105;DHT22;19476;51.448;6.674;2024-01-30T09:30:15;14.50;53.90
33105;DHT22;19476;51.448;6.674;2024-01-30T09:32:43;14.60;54.00
33105;DHT22;19476;51.448;6.674;2024-01-30T09:35:08;14.60;54.10
33105;DHT22;19476;51.448;6.674;2024-01-30T09:37:34;14.60;53.90
33105;DHT22;19476;51.448;6.674;2024-01-30T09:40:00;14.60;53.80
33105;DHT22;19476;51.448;6.674;2024-01-30T09:42:28;14.70;53.90
33105;DHT22;19476;51.448;6.674;2024-01-30T09:44:56;14.70;54.20
33105;DHT22;19476;51.448;6.674;2024-01-30T09:47:22;14.70;54.00
33105;DHT22;19476;51.448;6.674;2024-01-30T09:49:48;14.80;54.20
33105;DHT22;19476;51.448;6.674;2024-01-30T09:52:14;14.80;54.00
33105;DHT22;19476;51.448;6.674;2024-01-30T09:54:40;14.80;53.90
33105;DHT22;19476;51.448;6.674;2024-01-30T09:57:06;14.90;53.90
33105;DHT22;19476;51.448;6.674;2024-01-30T09:59:33;14.90;54.00
33105;DHT22;19476;51.448;6.674;2024-01-30T10:01:58;14.90;54.00
33105;DHT22;19476;51.448;6.674;2024-01-30T10:04:24;14.80;53.80
33105;DHT22;19476;51.448;6.674;2024-01-30T10:06:50;15.00;53.90
33105;DHT22;19476;51.448;6.674;2024-01-30T10:09:16;15.10;53.90
33105;DHT22;19476;51.448;6.674;2024-01-30T10:11:42;15.10;53.70
33105;DHT22;19476;51.448;6.674;2024-01-30T10:14:07;15.10;53.60
33105;DHT22;19476;51.448;6.674;2024-01-30T10:19:09;15.20;53.60
33105;DHT22;19476;51.448;6.674;2024-01-30T10:21:34;15.20;53.50
33105;DHT22;19476;51.448;6.674;2024-01-30T10:24:00;15.20;53.50
33105;DHT22;19476;51.448;6.674;2024-01-30T10:26:25;15.20;53.40
33105;DHT22;19476;51.448;6.674;2024-01-30T10:28:51;15.20;53.40
33105;DHT22;19476;51.448;6.674;2024-01-30T10:31:17;15.30;53.40
33105;DHT22;19476;51.448;6.674;2024-01-30T10:33:43;15.30;53.50
33105;DHT22;19476;51.448;6.674;2024-01-30T10:36:09;15.30;53.40
33105;DHT22;19476;51.448;6.674;2024-01-30T10:38:38;15.30;53.50
33105;DHT22;19476;51.448;6.674;2024-01-30T10:41:06;15.30;53.40
33105;DHT22;19476;51.448;6.674;2024-01-30T10:43:36;15.40;53.30
33105;DHT22;19476;51.448;6.674;2024-01-30T10:46:08;15.40;53.40
33105;DHT22;19476;51.448;6.674;2024-01-30T10:48:36;15.40;53.40
33105;DHT22;19476;51.448;6.674;2024-01-30T10:51:02;15.40;53.40
33105;DHT22;19476;51.448;6.674;2024-01-30T10:53:27;15.50;53.50
33105;DHT22;19476;51.448;6.674;2024-01-30T10:55:54;15.50;53.50
33105;DHT22;19476;51.448;6.674;2024-01-30T10:58:20;15.50;53.50
33105;DHT22;19476;51.448;6.674;2024-01-30T11:00:46;15.50;53.40
33105;DHT22;19476;51.448;6.674;2024-01-30T11:03:12;15.60;53.60
33105;DHT22;19476;51.448;6.674;2024-01-30T11:05:40;15.60;53.40
33105;DHT22;19476;51.448;6.674;2024-01-30T11:08:12;15.60;53.50
33105;DHT22;19476;51.448;6.674;2024-01-30T11:10:46;15.70;53.50
33105;DHT22;19476;51.448;6.674;2024-01-30T11:13:13;15.70;53.50
33105;DHT22;19476;51.448;6.674;2024-01-30T11:15:38;15.80;53.50
33105;DHT22;19476;51.448;6.674;2024-01-30T11:18:05;15.80;53.40
33105;DHT22;19476;51.448;6.674;2024-01-30T11:20:31;15.90;53.40
33105;DHT22;19476;51.448;6.674;2024-01-30T11:22:57;15.90;53.40
33105;DHT22;19476;51.448;6.674;2024-01-30T11:25:23;15.90;53.20
33105;DHT22;19476;51.448;6.674;2024-01-30T11:27:50;16.00;53.30
33105;DHT22;19476;51.448;6.674;2024-01-30T11:33:00;16.00;53.10
33105;DHT22;19476;51.448;6.674;2024-01-30T11:35:26;16.00;53.00
33105;DHT22;19476;51.448;6.674;2024-01-30T11:37:51;16.00;53.00
33105;DHT22;19476;51.448;6.674;2024-01-30T11:40:17;16.10;53.00
33105;DHT22;19476;51.448;6.674;2024-01-30T11:42:44;16.10;53.10
33105;DHT22;19476;51.448;6.674;2024-01-30T11:45:10;16.20;52.90
33105;DHT22;19476;51.448;6.674;2024-01-30T11:47:36;16.20;53.20
33105;DHT22;19476;51.448;6.674;2024-01-30T11:50:03;16.20;53.00
33105;DHT22;19476;51.448;6.674;2024-01-30T11:52:33;16.20;53.00
33105;DHT22;19476;51.448;6.674;2024-01-30T11:54:59;16.20;52.90
33105;DHT22;19476;51.448;6.674;2024-01-30T11:57:26;16.20;52.90
33105;DHT22;19476;51.448;6.674;2024-01-30T11:59:51;16.30;53.00
33105;DHT22;19476;51.448;6.674;2024-01-30T12:02:17;16.30;52.90
33105;DHT22;19476;51.448;6.674;2024-01-30T12:04:43;16.30;53.00
33105;DHT22;19476;51.448;6.674;2024-01-30T12:07:09;16.30;53.10
33105;DHT22;19476;51.448;6.674;2024-01-30T12:09:34;16.30;52.90
33105;DHT22;19476;51.448;6.674;2024-01-30T12:12:00;16.30;53.00
33105;DHT22;19476;51.448;6.674;2024-01-30T12:14:26;16.40;53.00
33105;DHT22;19476;51.448;6.674;2024-01-30T12:16:52;16.40;52.90
33105;DHT22;19476;51.448;6.674;2024-01-30T12:19:23;16.40;52.90
33105;DHT22;19476;51.448;6.674;2024-01-30T12:21:58;16.40;53.10
33105;DHT22;19476;51.448;6.674;2024-01-30T12:24:25;16.40;53.00
33105;DHT22;19476;51.448;6.674;2024-01-30T12:26:50;16.40;53.20
33105;DHT22;19476;51.448;6.674;2024-01-30T12:29:17;16.40;53.10
33105;DHT22;19476;51.448;6.674;2024-01-30T12:31:42;16.50;53.00
33105;DHT22;19476;51.448;6.674;2024-01-30T12:34:09;16.50;53.10
33105;DHT22;19476;51.448;6.674;2024-01-30T12:36:34;16.50;53.00
33105;DHT22;19476;51.448;6.674;2024-01-30T12:39:01;16.60;53.40
33105;DHT22;19476;51.448;6.674;2024-01-30T12:41:26;16.60;53.20
33105;DHT22;19476;51.448;6.674;2024-01-30T12:43:54;16.60;53.40
33105;DHT22;19476;51.448;6.674;2024-01-30T12:46:19;16.60;53.30
33105;DHT22;19476;51.448;6.674;2024-01-30T12:48:46;16.60;53.40
33105;DHT22;19476;51.448;6.674;2024-01-30T12:51:11;16.60;53.40
33105;DHT22;19476;51.448;6.674;2024-01-30T12:53:37;16.70;53.50
33105;DHT22;19476;51.448;6.674;2024-01-30T12:56:02;16.70;53.30
33105;DHT22;19476;51.448;6.674;2024-01-30T12:58:28;16.70;53.30
33105;DHT22;19476;51.448;6.674;2024-01-30T13:00:54;16.70;53.30
33105;DHT22;19476;51.448;6.674;2024-01-30T13:03:19;16.70;53.80
33105;DHT22;19476;51.448;6.674;2024-01-30T13:05:45;16.70;53.50
33105;DHT22;19476;51.448;6.674;2024-01-30T13:08:11;16.80;53.70
33105;DHT22;19476;51.448;6.674;2024-01-30T13:10:36;16.70;53.60
33105;DHT22;19476;51.448;6.674;2024-01-30T13:13:02;16.80;53.80
33105;DHT22;19476;51.448;6.674;2024-01-30T13:15:28;16.80;53.70
33105;DHT22;19476;51.448;6.674;2024-01-30T13:17:53;16.80;53.80
33105;DHT22;19476;51.448;6.674;2024-01-30T13:20:19;16.80;54.10
33105;DHT22;19476;51.448;6.674;2024-01-30T13:22:49;16.80;54.10
33105;DHT22;19476;51.448;6.674;2024-01-30T13:25:17;16.80;54.20
33105;DHT22;19476;51.448;6.674;2024-01-30T13:27:43;16.90;54.50
33105;DHT22;19476;51.448;6.674;2024-01-30T13:30:08;16.90;54.30
33105;DHT22;19476;51.448;6.674;2024-01-30T13:32:35;16.90;54.30
33105;DHT22;19476;51.448;6.674;2024-01-30T13:35:00;16.90;54.40
33105;DHT22;19476;51.448;6.674;2024-01-30T13:37:26;17.00;54.40
33105;DHT22;19476;51.448;6.674;2024-01-30T13:39:52;16.90;54.30
33105;DHT22;19476;51.448;6.674;2024-01-30T13:42:17;16.90;54.40
33105;DHT22;19476;51.448;6.674;2024-01-30T13:44:44;16.90;54.40
33105;DHT22;19476;51.448;6.674;2024-01-30T13:47:09;17.00;54.50
33105;DHT22;19476;51.448;6.674;2024-01-30T13:49:35;17.00;54.40
33105;DHT22;19476;51.448;6.674;2024-01-30T13:52:01;16.90;54.30
33105;DHT22;19476;51.448;6.674;2024-01-30T13:54:28;16.90;54.30
33105;DHT22;19476;51.448;6.674;2024-01-30T13:56:54;16.90;54.20
33105;DHT22;19476;51.448;6.674;2024-01-30T13:59:20;16.90;54.30
33105;DHT22;19476;51.448;6.674;2024-01-30T14:01:49;16.90;54.20
33105;DHT22;19476;51.448;6.674;2024-01-30T14:04:15;16.90;54.20
33105;DHT22;19476;51.448;6.674;2024-01-30T14:06:41;16.90;54.30
33105;DHT22;19476;51.448;6.674;2024-01-30T14:09:07;16.90;54.20
33105;DHT22;19476;51.448;6.674;2024-01-30T14:11:33;16.90;54.10
33105;DHT22;19476;51.448;6.674;2024-01-30T14:13:58;16.90;54.20
33105;DHT22;19476;51.448;6.674;2024-01-30T14:16:24;17.00;54.00
33105;DHT22;19476;51.448;6.674;2024-01-30T14:18:50;17.00;53.70
33105;DHT22;19476;51.448;6.674;2024-01-30T14:21:15;17.00;53.50
33105;DHT22;19476;51.448;6.674;2024-01-30T14:23:41;17.00;53.50
33105;DHT22;19476;51.448;6.674;2024-01-30T14:26:06;17.00;53.50
33105;DHT22;19476;51.448;6.674;2024-01-30T14:28:32;17.00;53.40
33105;DHT22;19476;51.448;6.674;2024-01-30T14:30:57;17.00;53.10
33105;DHT22;19476;51.448;6.674;2024-01-30T14:33:23;17.00;53.00
33105;DHT22;19476;51.448;6.674;2024-01-30T14:35:48;17.00;52.90
33105;DHT22;19476;51.448;6.674;2024-01-30T14:38:14;17.00;52.10
33105;DHT22;19476;51.448;6.674;2024-01-30T14:40:40;17.00;52.00
33105;DHT22;19476;51.448;6.674;2024-01-30T14:43:06;17.00;50.70
33105;DHT22;19476;51.448;6.674;2024-01-30T14:45:31;16.90;50.50
33105;DHT22;19476;51.448;6.674;2024-01-30T14:47:59;16.80;50.50
33105;DHT22;19476;51.448;6.674;2024-01-30T14:50:25;16.80;50.50
33105;DHT22;19476;51.448;6.674;2024-01-30T14:52:52;16.80;50.60
33105;DHT22;19476;51.448;6.674;2024-01-30T14:55:18;16.80;50.50
33105;DHT22;19476;51.448;6.674;2024-01-30T14:57:44;16.80;50.40
33105;DHT22;19476;51.448;6.674;2024-01-30T15:00:11;16.70;50.30
33105;DHT22;19476;51.448;6.674;2024-01-30T15:02:37;16.70;50.40
33105;DHT22;19476;51.448;6.674;2024-01-30T15:05:03;16.70;50.40
33105;DHT22;19476;51.448;6.674;2024-01-30T15:07:28;16.70;50.50
33105;DHT22;19476;51.448;6.674;2024-01-30T15:09:54;16.60;50.10
33105;DHT22;19476;51.448;6.674;2024-01-30T15:12:20;16.60;50.00
33105;DHT22;19476;51.448;6.674;2024-01-30T15:14:45;16.60;50.00
33105;DHT22;19476;51.448;6.674;2024-01-30T15:17:16;16.60;49.60
33105;DHT22;19476;51.448;6.674;2024-01-30T15:19:42;16.50;48.50
33105;DHT22;19476;51.448;6.674;2024-01-30T15:22:08;16.50;47.40
33105;DHT22;19476;51.448;6.674;2024-01-30T15:27:36;16.30;47.70
33105;DHT22;19476;51.448;6.674;2024-01-30T15:30:02;16.30;48.10